Time;durP1;ratioP1;P1;durP2;ratioP2;P2;SDS_P1;SDS_P2;PMS_P1;PMS_P2;Temp;Humidity;BMP_temperature;BMP_pressure;BME280_temperature;BME280_humidity;BME280_pressure;Samples;Min_cycle;Max_cycle;Signal;HPM_P1;HPM_P2
2021/12/02 00:14:21;;;;;;;16.78;10.78;;;;;;;7.05;100.00;97293.66;714655;1177;113753;-76
2021/12/02 00:29:24;;;;;;;16.80;10.85;;;;;;;7.11;100.00;97288.53;715187;1205;113856;-77
2021/12/02 00:44:29;;;;;;;16.60;9.55;;;;;;;7.28;100.00;97246.55;714341;1174;114001;-76
2021/12/02 00:59:32;;;;;;;12.10;8.55;;;;;;;7.33;100.00;97257.23;714892;1177;114135;-76
2021/12/02 01:14:34;;;;;;;10.58;7.75;;;;;;;7.52;100.00;97232.27;714677;1181;114237;-76
2021/12/02 01:29:38;;;;;;;11.60;7.68;;;;;;;7.63;100.00;97203.06;714284;1202;113585;-76
2021/12/02 01:44:41;;;;;;;29.95;12.65;;;;;;;7.63;100.00;97176.97;714305;1200;114184;-77
2021/12/02 01:59:51;;;;;;;61.00;24.13;;;;;;;8.02;100.00;97179.96;714211;1187;113529;-77
2021/12/02 02:14:54;;;;;;;20.50;11.65;;;;;;;8.27;100.00;97184.68;714249;1200;114170;-77
2021/12/02 02:29:57;;;;;;;8.43;5.50;;;;;;;8.27;100.00;97177.64;714075;1202;114828;-77
2021/12/02 02:45:00;;;;;;;5.68;4.50;;;;;;;8.13;100.00;97158.52;713961;1200;113914;-76
2021/12/02 03:00:10;;;;;;;3.50;2.15;;;;;;;7.56;100.00;97170.92;714201;1202;114043;-75
2021/12/02 03:30:15;;;;;;;27.13;13.15;;;;;;;7.43;93.87;97194.30;714111;1200;114447;-76
2021/12/02 03:45:22;;;;;;;1.97;1.40;;;;;;;7.40;90.39;97207.72;714025;1200;114265;-76
2021/12/02 04:00:24;;;;;;;38.40;11.93;;;;;;;7.18;92.28;97184.31;714068;1200;113578;-75
2021/12/02 04:15:32;;;;;;;6.15;2.23;;;;;;;7.12;87.64;97193.67;714371;1200;114762;-75
2021/12/02 04:30:35;;;;;;;10.00;3.93;;;;;;;7.34;80.80;97201.47;714436;1202;113267;-75
2021/12/02 04:45:37;;;;;;;2.60;1.50;;;;;;;7.24;79.49;97206.20;713946;1200;114059;-75
2021/12/02 05:00:39;;;;;;;3.83;1.70;;;;;;;7.10;80.32;97208.72;714215;1200;115008;-75
2021/12/02 05:15:41;;;;;;;3.75;1.18;;;;;;;7.11;76.24;97202.52;714293;1200;114030;-75
2021/12/02 05:30:45;;;;;;;3.23;1.60;;;;;;;7.07;75.99;97214.28;714456;1200;113423;-75
2021/12/02 05:45:47;;;;;;;1.63;1.10;;;;;;;7.02;74.86;97262.77;714144;1202;113453;-75
2021/12/02 06:00:50;;;;;;;3.73;1.20;;;;;;;6.75;72.45;97280.75;714108;1202;114214;-76
2021/12/02 06:15:52;;;;;;;6.10;2.38;;;;;;;6.65;71.42;97291.45;714375;1202;113616;-75
2021/12/02 06:30:55;;;;;;;15.58;7.00;;;;;;;6.43;71.55;97372.13;714161;1199;114471;-75
2021/12/02 06:45:58;;;;;;;24.27;7.00;;;;;;;6.25;68.75;97345.64;714201;1205;113373;-75
2021/12/02 07:01:01;;;;;;;4.00;2.38;;;;;;;6.06;69.15;97365.19;714241;1200;113884;-73
2021/12/02 07:16:04;;;;;;;4.53;2.30;;;;;;;5.80;68.37;97398.39;714220;1202;114569;-73
2021/12/02 07:31:06;;;;;;;6.10;4.00;;;;;;;5.82;68.02;97393.84;714418;1199;113727;-73
2021/12/02 07:46:09;;;;;;;9.90;6.35;;;;;;;5.66;68.34;97410.39;714682;1176;113571;-75
2021/12/02 08:01:13;;;;;;;4.50;1.80;;;;;;;5.62;68.79;97444.70;715217;1202;114505;-74
2021/12/02 08:16:19;;;;;;;11.83;4.60;;;;;;;5.62;69.74;97416.09;715193;1200;113305;-73
2021/12/02 08:31:23;;;;;;;26.63;13.35;;;;;;;5.57;70.68;97453.03;715554;1200;114012;-72
2021/12/02 08:46:27;;;;;;;26.40;14.68;;;;;;;5.53;70.23;97469.14;715346;1205;114288;-74
2021/12/02 09:01:32;;;;;;;5.43;3.47;;;;;;;5.45;70.52;97504.63;714707;1200;114176;-74
2021/12/02 09:16:36;;;;;;;6.80;3.63;;;;;;;5.55;70.23;97504.40;715049;1199;114502;-75
2021/12/02 09:31:39;;;;;;;8.03;3.78;;;;;;;5.49;70.28;97528.50;714800;1200;113819;-73
2021/12/02 09:46:42;;;;;;;21.23;8.90;;;;;;;5.57;69.97;97512.85;714805;1201;113593;-72
2021/12/02 10:01:51;;;;;;;31.60;12.03;;;;;;;5.46;70.06;97539.22;715162;1178;114086;-74
2021/12/02 10:17:19;;;;;;;47.30;15.85;;;;;;;5.47;70.46;97556.45;715911;1203;114018;-74
2021/12/02 10:32:25;;;;;;;39.63;14.30;;;;;;;5.24;71.62;97566.77;714925;1200;114408;-73
2021/12/02 10:47:28;;;;;;;36.53;15.03;;;;;;;5.25;71.26;97582.22;715178;1204;114306;-75
2021/12/02 11:02:38;;;;;;;13.80;6.35;;;;;;;5.12;68.63;97608.72;715200;1200;114015;-74
2021/12/02 11:17:46;;;;;;;6.77;3.37;;;;;;;5.19;67.68;97637.45;715465;1206;113467;-76
2021/12/02 11:32:58;;;;;;;12.87;4.87;;;;;;;5.08;69.28;97651.61;716093;1202;113313;-75
2021/12/02 11:48:00;;;;;;;8.50;3.10;;;;;;;5.01;67.19;97661.02;715477;1205;113660;-75
2021/12/02 12:03:31;;;;;;;9.17;3.67;;;;;;;5.07;67.84;97678.57;715105;1200;113808;-78
2021/12/02 12:18:39;;;;;;;11.77;5.07;;;;;;;5.02;69.03;97706.83;715022;1186;113138;-73
2021/12/02 12:33:44;;;;;;;5.00;2.17;;;;;;;4.74;69.61;97712.34;715555;1202;113845;-72
2021/12/02 12:48:51;;;;;;;55.13;22.65;;;;;;;4.79;68.84;97737.81;716035;1202;113773;-73
2021/12/02 13:04:14;;;;;;;16.23;5.00;;;;;;;4.57;69.75;97793.80;716962;1200;114493;-74
2021/12/02 13:19:19;;;;;;;13.63;6.35;;;;;;;4.67;69.50;97828.21;715542;1200;113746;-74
2021/12/02 13:34:26;;;;;;;13.73;8.90;;;;;;;4.65;70.86;97828.38;716752;1202;113849;-74
2021/12/02 13:49:37;;;;;;;18.48;6.10;;;;;;;4.40;71.46;97844.84;715913;1177;113328;-73
2021/12/02 14:04:46;;;;;;;23.10;7.97;;;;;;;4.48;72.07;97863.05;715906;1205;113442;-75
2021/12/02 14:20:20;;;;;;;17.87;5.97;;;;;;;4.41;73.74;97896.60;715766;1206;114724;-75
2021/12/02 14:35:24;;;;;;;64.83;25.08;;;;;;;4.52;73.94;97907.70;715384;1200;112840;-74
2021/12/02 14:50:29;;;;;;;18.37;6.40;;;;;;;4.40;74.08;97948.69;716128;1174;113723;-75
2021/12/02 15:05:34;;;;;;;16.93;6.38;;;;;;;4.42;75.74;97960.55;715313;1200;114200;-77
2021/12/02 15:21:00;;;;;;;33.47;10.70;;;;;;;4.25;77.23;97976.95;715431;1200;114324;-74
2021/12/02 15:36:07;;;;;;;51.18;19.08;;;;;;;4.34;77.39;97978.64;716787;1200;114056;-74
2021/12/02 15:51:12;;;;;;;22.08;9.48;;;;;;;4.16;78.89;98000.27;715676;1200;114789;-74
2021/12/02 16:06:19;;;;;;;14.83;5.45;;;;;;;4.26;79.48;98033.09;715733;1177;113613;-73
2021/12/02 16:21:23;;;;;;;17.25;6.38;;;;;;;4.18;81.25;98083.16;715445;1205;113825;-73
2021/12/02 16:36:28;;;;;;;12.90;5.08;;;;;;;4.12;82.22;98094.95;715344;1200;113956;-73
2021/12/02 16:51:36;;;;;;;12.60;6.00;;;;;;;4.14;81.91;98137.16;716344;1205;112971;-73
2021/12/02 17:06:40;;;;;;;26.50;9.60;;;;;;;4.08;81.81;98152.46;715238;1177;113605;-74
2021/12/02 17:21:43;;;;;;;13.90;5.95;;;;;;;3.89;83.81;98164.58;714727;1200;113483;-74
2021/12/02 17:36:46;;;;;;;14.43;5.83;;;;;;;3.99;84.77;98190.50;715232;1200;114320;-72
2021/12/02 17:51:50;;;;;;;25.10;9.97;;;;;;;3.85;86.07;98232.47;715407;1177;115612;-71
2021/12/02 18:06:55;;;;;;;19.17;7.40;;;;;;;3.69;87.82;98283.16;722057;1202;114120;-71
2021/12/02 18:21:58;;;;;;;17.53;7.03;;;;;;;3.47;91.18;98336.97;715924;1200;115071;-72
2021/12/02 18:37:02;;;;;;;27.15;10.90;;;;;;;3.49;93.20;98349.80;714819;1177;113593;-72
2021/12/02 18:52:05;;;;;;;85.70;26.33;;;;;;;3.46;95.09;98379.41;715177;1204;113662;-72
2021/12/02 19:07:28;;;;;;;66.83;21.80;;;;;;;3.43;96.19;98397.83;715810;1176;113057;-71
2021/12/02 19:22:55;;;;;;;48.80;19.53;;;;;;;3.37;96.51;98421.69;715809;1199;114126;-70
2021/12/02 19:38:00;;;;;;;;;;;;;;;3.37;98.52;98460.58;715307;1200;113872;-73
2021/12/02 19:53:02;;;;;;;66.20;22.50;;;;;;;3.39;97.61;98484.61;734051;1177;100438;-73
2021/12/02 20:08:06;;;;;;;65.18;19.80;;;;;;;3.41;97.71;98494.84;715570;1200;115484;-71
2021/12/02 20:23:10;;;;;;;70.63;19.40;;;;;;;3.40;97.99;98521.70;715213;1178;114133;-74
2021/12/02 20:38:12;;;;;;;52.18;15.15;;;;;;;3.39;98.99;98543.39;714212;1199;113723;-74
2021/12/02 20:53:16;;;;;;;50.53;17.03;;;;;;;3.28;98.13;98546.91;714181;1184;113632;-73
2021/12/02 21:08:21;;;;;;;40.18;12.83;;;;;;;3.15;99.45;98568.69;713932;1175;114110;-73
2021/12/02 21:23:24;;;;;;;20.67;7.87;;;;;;;2.83;100.00;98586.92;716111;1175;113874;-72
2021/12/02 21:38:29;;;;;;;14.93;7.07;;;;;;;2.75;100.00;98620.41;715376;1177;113730;-72
2021/12/02 21:53:33;;;;;;;15.40;7.45;;;;;;;2.65;100.00;98633.27;715377;1202;113712;-72
2021/12/02 22:08:37;;;;;;;7.93;5.20;;;;;;;2.45;100.00;98653.83;715758;1177;113986;-73
2021/12/02 22:23:39;;;;;;;9.37;4.70;;;;;;;2.47;100.00;98670.06;715322;1177;113962;-73
2021/12/02 22:38:42;;;;;;;12.27;6.50;;;;;;;2.53;100.00;98694.63;716106;1194;113784;-73
2021/12/02 22:53:44;;;;;;;10.90;5.13;;;;;;;2.75;100.00;98717.05;716235;1189;114510;-73
2021/12/02 23:08:47;;;;;;;15.00;6.00;;;;;;;2.84;100.00;98718.08;715220;1203;115441;-71
2021/12/02 23:23:50;;;;;;;9.78;6.13;;;;;;;2.63;100.00;98736.16;718733;1204;114314;-74
2021/12/02 23:38:56;;;;;;;6.13;4.20;;;;;;;2.36;100.00;98754.69;717478;1176;113380;-74
2021/12/02 23:53:58;;;;;;;11.17;4.03;;;;;;;2.19;100.00;98769.78;714815;1177;113421;-73
